createdAt,value
2024-05-09T00:00:36.480Z,100.00
2024-05-09T00:03:07.420Z,100.00
2024-05-09T00:05:34.882Z,100.00
2024-05-09T00:08:02.104Z,100.00
2024-05-09T00:10:35.963Z,100.00
2024-05-09T00:13:06.424Z,100.00
2024-05-09T00:15:34.150Z,100.00
2024-05-09T00:18:01.842Z,100.00
2024-05-09T00:20:37.350Z,100.00
2024-05-09T00:23:09.720Z,100.00
2024-05-09T00:25:37.524Z,100.00
2024-05-09T00:28:05.503Z,100.00
2024-05-09T00:30:35.715Z,100.00
2024-05-09T00:33:05.707Z,100.00
2024-05-09T00:35:33.880Z,100.00
2024-05-09T00:38:01.116Z,100.00
2024-05-09T00:40:38.748Z,100.00
2024-05-09T00:43:09.165Z,100.00
2024-05-09T00:45:36.318Z,100.00
2024-05-09T00:48:07.993Z,100.00
2024-05-09T00:50:38.669Z,100.00
2024-05-09T00:53:06.300Z,100.00
2024-05-09T00:55:35.049Z,100.00
2024-05-09T00:58:02.302Z,100.00
2024-05-09T01:00:36.011Z,100.00
2024-05-09T01:03:12.009Z,100.00
2024-05-09T01:05:42.099Z,100.00
2024-05-09T01:08:10.056Z,100.00
2024-05-09T01:10:37.520Z,100.00
2024-05-09T01:13:04.922Z,100.00
2024-05-09T01:15:32.416Z,100.00
2024-05-09T01:18:07.165Z,100.00
2024-05-09T01:20:41.255Z,100.00
2024-05-09T01:23:11.648Z,100.00
2024-05-09T01:25:39.052Z,100.00
2024-05-09T01:28:06.490Z,100.00
2024-05-09T01:30:36.199Z,100.00
2024-05-09T01:33:07.257Z,100.00
2024-05-09T01:35:36.555Z,100.00
2024-05-09T01:38:04.438Z,100.00
2024-05-09T01:40:38.432Z,100.00
2024-05-09T01:43:07.560Z,100.00
2024-05-09T01:45:35.787Z,100.00
2024-05-09T01:48:03.201Z,100.00
2024-05-09T01:50:38.143Z,100.00
2024-05-09T01:53:12.598Z,100.00
2024-05-09T01:55:40.180Z,100.00
2024-05-09T01:58:08.125Z,100.00
2024-05-09T02:00:39.880Z,100.00
2024-05-09T02:03:10.519Z,100.00
2024-05-09T02:05:39.174Z,100.00
2024-05-09T02:08:06.701Z,100.00
2024-05-09T02:10:33.944Z,100.00
2024-05-09T02:13:00.919Z,100.00
2024-05-09T02:15:28.355Z,100.00
2024-05-09T02:17:55.906Z,100.00
2024-05-09T02:20:30.466Z,100.00
2024-05-09T02:23:04.619Z,100.00
2024-05-09T02:25:32.278Z,100.00
2024-05-09T02:27:59.402Z,100.00
2024-05-09T02:30:36.525Z,100.00
2024-05-09T02:33:12.919Z,100.00
2024-05-09T02:35:41.851Z,100.00
2024-05-09T02:38:08.966Z,100.00
2024-05-09T02:40:38.475Z,100.00
2024-05-09T02:43:07.536Z,100.00
2024-05-09T02:45:34.748Z,100.00
2024-05-09T02:48:02.696Z,100.00
2024-05-09T02:50:37.144Z,100.00
2024-05-09T02:53:07.508Z,100.00
2024-05-09T02:55:34.915Z,100.00
2024-05-09T02:58:01.787Z,100.00
2024-05-09T03:00:38.167Z,100.00
2024-05-09T03:03:10.103Z,100.00
2024-05-09T03:05:39.515Z,100.00
2024-05-09T03:08:07.102Z,100.00
2024-05-09T03:10:36.822Z,100.00
2024-05-09T03:13:09.414Z,100.00
2024-05-09T03:18:44.154Z,100.00
2024-05-09T03:21:11.830Z,100.00
2024-05-09T03:23:43.465Z,100.00
2024-05-09T03:26:15.377Z,100.00
2024-05-09T03:28:43.603Z,100.00
2024-05-09T03:31:11.088Z,100.00
2024-05-09T03:33:38.736Z,100.00
2024-05-09T03:36:09.051Z,100.00
2024-05-09T03:38:38.521Z,100.00
2024-05-09T03:41:06.106Z,100.00
2024-05-09T03:43:33.593Z,100.00
2024-05-09T03:46:00.638Z,100.00
2024-05-09T03:48:28.077Z,100.00
2024-05-09T03:50:55.163Z,100.00
2024-05-09T03:53:22.410Z,100.00
2024-05-09T03:55:49.781Z,100.00
2024-05-09T03:58:18.433Z,100.00
2024-05-09T04:00:45.546Z,100.00
2024-05-09T04:03:13.446Z,100.00
2024-05-09T04:05:42.329Z,100.00
2024-05-09T04:08:10.848Z,100.00
2024-05-09T04:10:38.079Z,100.00
2024-05-09T04:13:05.208Z,100.00
2024-05-09T04:15:32.623Z,100.00
2024-05-09T04:18:00.025Z,100.00
2024-05-09T04:20:36.302Z,100.00
2024-05-09T04:23:08.058Z,100.00
2024-05-09T04:25:37.512Z,100.00
2024-05-09T04:28:05.177Z,100.00
2024-05-09T04:30:38.173Z,100.00
2024-05-09T04:33:09.518Z,100.00
2024-05-09T04:35:39.205Z,100.00
2024-05-09T04:38:06.716Z,100.00
2024-05-09T04:40:36.615Z,100.00
2024-05-09T04:43:05.582Z,100.00
2024-05-09T04:45:32.795Z,100.00
2024-05-09T04:47:59.980Z,100.00
2024-05-09T04:50:35.163Z,100.00
2024-05-09T04:53:07.607Z,100.00
2024-05-09T04:55:36.002Z,100.00
2024-05-09T04:58:03.305Z,100.00
2024-05-09T05:00:36.058Z,100.00
2024-05-09T05:03:13.101Z,100.00
2024-05-09T05:05:43.294Z,100.00
2024-05-09T05:08:11.861Z,100.00
2024-05-09T05:10:39.192Z,100.00
2024-05-09T05:13:15.246Z,100.00
2024-05-09T05:15:43.426Z,100.00
2024-05-09T05:18:10.925Z,100.00
2024-05-09T05:20:38.242Z,98.63
2024-05-09T05:23:08.290Z,98.36
2024-05-09T05:25:35.189Z,98.33
2024-05-09T05:28:02.132Z,98.52
2024-05-09T05:30:34.398Z,96.75
2024-05-09T05:33:02.342Z,95.32
2024-05-09T05:35:29.809Z,96.52
2024-05-09T05:37:56.733Z,95.77
2024-05-09T05:40:32.264Z,94.27
2024-05-09T05:43:07.769Z,92.75
2024-05-09T05:45:35.129Z,91.37
2024-05-09T05:48:03.837Z,91.10
2024-05-09T05:50:35.939Z,90.51
2024-05-09T05:53:06.182Z,88.27
2024-05-09T05:55:33.243Z,89.40
2024-05-09T05:58:03.366Z,89.90
2024-05-09T06:00:38.135Z,88.68
2024-05-09T06:03:08.179Z,87.30
2024-05-09T06:05:36.255Z,86.89
2024-05-09T06:08:04.153Z,85.50
2024-05-09T06:10:37.968Z,86.22
2024-05-09T06:13:11.864Z,86.52
2024-05-09T06:15:39.729Z,85.49
2024-05-09T06:18:08.002Z,84.22
2024-05-09T06:20:37.854Z,83.19
2024-05-09T06:23:06.182Z,83.52
2024-05-09T06:25:34.362Z,83.78
2024-05-09T06:28:01.374Z,79.69
2024-05-09T06:30:35.264Z,82.52
2024-05-09T06:33:08.027Z,83.91
2024-05-09T06:35:35.636Z,84.71
2024-05-09T06:38:03.167Z,84.47
2024-05-09T06:40:37.181Z,83.63
2024-05-09T06:43:17.604Z,77.62
2024-05-09T06:45:49.442Z,73.78
2024-05-09T06:48:20.446Z,74.76
2024-05-09T06:50:48.225Z,78.01
2024-05-09T06:53:15.927Z,79.44
2024-05-09T06:55:42.969Z,77.85
2024-05-09T06:58:10.009Z,77.57
2024-05-09T07:00:40.063Z,73.35
2024-05-09T07:03:15.373Z,69.82
2024-05-09T07:05:45.223Z,67.59
2024-05-09T07:08:13.453Z,73.93
2024-05-09T07:10:42.139Z,71.45
2024-05-09T07:13:09.986Z,64.96
2024-05-09T07:15:37.383Z,62.99
2024-05-09T07:18:22.782Z,61.96
2024-05-09T07:20:50.681Z,60.53
2024-05-09T07:23:18.214Z,59.48
2024-05-09T07:25:45.726Z,55.42
2024-05-09T07:28:16.820Z,56.52
2024-05-09T07:30:44.020Z,59.31
2024-05-09T07:33:22.502Z,52.64
2024-05-09T07:35:51.113Z,56.31
2024-05-09T07:38:18.254Z,58.74
2024-05-09T07:40:45.810Z,57.06
2024-05-09T07:43:13.527Z,54.94
2024-05-09T07:45:50.413Z,52.38
2024-05-09T07:52:38.305Z,51.60
2024-05-09T07:53:46.332Z,50.66
2024-05-09T07:56:17.515Z,46.98
2024-05-09T07:58:45.564Z,46.80
2024-05-09T08:01:12.907Z,46.35
2024-05-09T08:03:40.971Z,45.89
2024-05-09T08:06:08.111Z,43.75
2024-05-09T08:08:36.058Z,43.27
2024-05-09T08:11:03.146Z,45.81
2024-05-09T08:13:30.668Z,45.94
2024-05-09T08:15:57.651Z,43.61
2024-05-09T08:18:24.781Z,41.48
2024-05-09T08:20:52.122Z,40.79
2024-05-09T08:23:19.191Z,42.20
2024-05-09T08:25:47.413Z,41.90
2024-05-09T08:28:14.709Z,40.89
2024-05-09T08:30:42.428Z,42.45
2024-05-09T08:33:09.558Z,42.09
2024-05-09T08:35:37.483Z,41.39
2024-05-09T08:38:06.089Z,41.63
2024-05-09T08:40:36.106Z,42.59
2024-05-09T08:43:08.627Z,38.91
2024-05-09T08:45:41.490Z,38.36
2024-05-09T08:48:08.669Z,37.81
2024-05-09T08:50:39.266Z,37.52
2024-05-09T08:53:08.043Z,37.81
2024-05-09T08:55:38.131Z,37.01
2024-05-09T08:58:07.418Z,35.05
2024-05-09T09:00:37.322Z,32.63
2024-05-09T09:03:06.350Z,33.09
2024-05-09T09:05:33.847Z,33.33
2024-05-09T09:08:03.940Z,36.29
2024-05-09T09:10:32.425Z,35.80
2024-05-09T09:13:04.031Z,33.87
2024-05-09T09:15:31.079Z,33.22
2024-05-09T09:17:58.659Z,32.58
2024-05-09T09:20:33.526Z,31.71
2024-05-09T09:23:03.426Z,30.37
2024-05-09T09:25:30.688Z,31.54
2024-05-09T09:27:57.809Z,31.37
2024-05-09T09:30:36.027Z,32.13
2024-05-09T09:33:06.266Z,32.14
2024-05-09T09:35:35.262Z,31.96
2024-05-09T09:38:02.906Z,30.77
2024-05-09T09:40:35.898Z,31.40
2024-05-09T09:43:08.772Z,30.82
2024-05-09T09:45:36.004Z,30.28
2024-05-09T09:48:05.057Z,30.54
2024-05-09T09:50:34.814Z,30.15
2024-05-09T09:53:03.467Z,29.32
2024-05-09T09:55:32.047Z,29.25
2024-05-09T09:57:59.064Z,29.24
2024-05-09T10:00:32.050Z,29.05
2024-05-09T10:03:01.707Z,29.63
2024-05-09T10:05:29.785Z,29.70
2024-05-09T10:07:56.949Z,29.65
2024-05-09T10:10:31.449Z,30.02
2024-05-09T10:13:03.639Z,30.09
2024-05-09T10:15:46.217Z,29.80
2024-05-09T10:18:14.524Z,29.56
2024-05-09T10:20:45.634Z,29.82
2024-05-09T10:23:23.124Z,30.09
2024-05-09T10:26:04.203Z,29.65
2024-05-09T10:28:32.639Z,29.25
2024-05-09T10:31:17.755Z,29.11
2024-05-09T10:33:47.456Z,29.43
2024-05-09T10:36:18.593Z,29.22
2024-05-09T10:38:45.645Z,29.83
2024-05-09T10:41:12.582Z,29.58
2024-05-09T10:43:43.018Z,28.69
2024-05-09T10:46:10.567Z,29.00
2024-05-09T10:48:38.431Z,28.40
2024-05-09T10:51:05.585Z,28.50
2024-05-09T10:53:32.392Z,28.25
2024-05-09T10:55:59.997Z,28.52
2024-05-09T10:58:27.543Z,29.37
2024-05-09T11:00:57.713Z,30.03
2024-05-09T11:03:24.857Z,28.83
2024-05-09T11:05:52.344Z,28.56
2024-05-09T11:08:21.565Z,28.28
2024-05-09T11:10:50.386Z,28.46
2024-05-09T11:13:30.789Z,27.62
2024-05-09T11:16:01.451Z,27.37
2024-05-09T11:18:32.323Z,27.40
2024-05-09T11:21:03.340Z,27.64
2024-05-09T11:23:31.106Z,26.91
2024-05-09T11:25:58.259Z,27.12
2024-05-09T11:28:27.645Z,26.80
2024-05-09T11:31:04.790Z,26.68
2024-05-09T11:33:31.768Z,26.34
2024-05-09T11:35:58.825Z,27.29
2024-05-09T11:38:25.962Z,26.58
2024-05-09T11:40:52.945Z,26.45
2024-05-09T11:43:20.494Z,26.49
2024-05-09T11:45:47.481Z,27.04
2024-05-09T11:48:14.689Z,28.25
2024-05-09T11:50:42.025Z,28.11
2024-05-09T11:53:09.093Z,26.90
2024-05-09T11:55:36.070Z,27.00
2024-05-09T11:58:04.044Z,26.63
2024-05-09T12:00:36.674Z,26.35
2024-05-09T12:03:06.087Z,27.24
2024-05-09T12:05:34.151Z,26.41
2024-05-09T12:08:01.828Z,26.55
2024-05-09T12:10:33.787Z,26.59
2024-05-09T12:13:04.365Z,25.89
2024-05-09T12:15:35.236Z,27.12
2024-05-09T12:18:03.926Z,27.73
2024-05-09T12:20:36.967Z,27.53
2024-05-09T12:23:07.220Z,26.00
2024-05-09T12:25:35.692Z,26.74
2024-05-09T12:28:03.436Z,26.89
2024-05-09T12:30:36.707Z,27.42
2024-05-09T12:33:11.295Z,26.83
2024-05-09T12:35:39.550Z,26.78
2024-05-09T12:38:06.467Z,26.53
2024-05-09T12:40:37.267Z,26.24
2024-05-09T12:43:06.766Z,25.47
2024-05-09T12:45:34.285Z,25.60
2024-05-09T12:48:01.515Z,25.97
2024-05-09T12:50:33.275Z,25.69
2024-05-09T12:53:02.456Z,26.03
2024-05-09T12:55:37.153Z,26.64
2024-05-09T12:58:13.075Z,26.42
2024-05-09T13:00:40.388Z,26.74
2024-05-09T13:03:07.509Z,26.32
2024-05-09T13:05:35.163Z,25.65
2024-05-09T13:08:03.046Z,25.49
2024-05-09T13:10:32.772Z,26.40
2024-05-09T13:13:01.621Z,25.73
2024-05-09T13:15:30.029Z,25.53
2024-05-09T13:18:00.254Z,25.34
2024-05-09T13:20:33.747Z,24.66
2024-05-09T13:23:03.456Z,24.38
2024-05-09T13:25:30.787Z,24.78
2024-05-09T13:27:57.966Z,25.17
2024-05-09T13:30:34.348Z,26.22
2024-05-09T13:33:07.203Z,26.59
2024-05-09T13:35:35.579Z,27.13
2024-05-09T13:38:04.267Z,28.00
2024-05-09T13:40:35.230Z,28.30
2024-05-09T13:43:04.683Z,28.14
2024-05-09T13:45:33.206Z,28.78
2024-05-09T13:48:01.505Z,28.38
2024-05-09T13:50:35.546Z,28.56
2024-05-09T13:53:06.337Z,27.90
2024-05-09T13:55:36.598Z,27.92
2024-05-09T13:58:03.869Z,28.21
2024-05-09T14:00:42.618Z,27.99
2024-05-09T14:03:14.811Z,28.38
2024-05-09T14:05:42.678Z,27.71
2024-05-09T14:08:09.859Z,26.53
2024-05-09T14:10:42.929Z,25.50
2024-05-09T14:13:10.178Z,24.76
2024-05-09T14:15:37.272Z,24.79
2024-05-09T14:18:04.819Z,24.54
2024-05-09T14:20:32.619Z,24.31
2024-05-09T14:23:00.690Z,23.94
2024-05-09T14:25:29.260Z,23.84
2024-05-09T14:27:59.168Z,23.39
2024-05-09T14:30:34.372Z,23.67
2024-05-09T14:33:06.071Z,23.24
2024-05-09T14:35:34.017Z,23.56
2024-05-09T14:38:01.177Z,23.16
2024-05-09T14:40:39.914Z,23.36
2024-05-09T14:43:11.110Z,23.75
2024-05-09T14:45:38.395Z,23.74
2024-05-09T14:48:06.372Z,23.59
2024-05-09T14:50:37.926Z,24.08
2024-05-09T14:53:07.835Z,23.82
2024-05-09T14:55:36.705Z,23.98
2024-05-09T14:58:05.755Z,23.81
2024-05-09T15:00:37.850Z,24.02
2024-05-09T15:03:06.176Z,24.09
2024-05-09T15:05:33.594Z,24.43
2024-05-09T15:08:00.545Z,25.37
2024-05-09T15:10:34.327Z,26.06
2024-05-09T15:13:04.050Z,26.57
2024-05-09T15:15:31.615Z,25.28
2024-05-09T15:17:58.925Z,24.35
2024-05-09T15:20:33.132Z,24.09
2024-05-09T15:23:04.192Z,23.95
2024-05-09T15:25:32.806Z,23.98
2024-05-09T15:27:59.931Z,24.20
2024-05-09T15:30:31.404Z,23.84
2024-05-09T15:33:02.770Z,23.78
2024-05-09T15:36:28.036Z,23.86
2024-05-09T15:38:55.917Z,23.80
2024-05-09T15:41:24.181Z,23.49
2024-05-09T15:43:51.735Z,23.50
2024-05-09T15:46:19.295Z,24.08
2024-05-09T15:48:47.670Z,24.31
2024-05-09T15:51:15.339Z,24.35
2024-05-09T15:53:42.910Z,24.25
2024-05-09T15:56:11.064Z,24.10
2024-05-09T15:58:38.522Z,24.18
2024-05-09T16:01:06.460Z,24.22
2024-05-09T16:03:34.377Z,23.97
2024-05-09T16:06:02.722Z,23.78
2024-05-09T16:08:30.495Z,24.05
2024-05-09T16:10:58.283Z,24.21
2024-05-09T16:13:25.954Z,24.37
2024-05-09T16:15:53.766Z,24.39
2024-05-09T16:18:21.490Z,24.70
2024-05-09T16:20:50.282Z,25.07
2024-05-09T16:23:18.202Z,25.22
2024-05-09T16:25:47.792Z,25.51
2024-05-09T16:28:15.823Z,25.98
2024-05-09T16:30:43.503Z,26.20
2024-05-09T16:33:12.003Z,26.79
2024-05-09T16:35:39.995Z,27.68
2024-05-09T16:38:07.794Z,28.32
2024-05-09T16:40:39.801Z,28.99
2024-05-09T16:43:10.209Z,29.92
2024-05-09T16:45:44.512Z,30.55
2024-05-09T16:48:13.423Z,31.71
2024-05-09T16:50:41.226Z,33.84
2024-05-09T16:53:08.880Z,36.39
2024-05-09T16:55:36.857Z,37.36
2024-05-09T16:58:06.500Z,39.81
2024-05-09T17:00:40.837Z,43.56
2024-05-09T17:03:15.583Z,43.55
2024-05-09T17:05:46.764Z,44.28
2024-05-09T17:08:16.444Z,44.52
2024-05-09T17:10:45.583Z,45.65
2024-05-09T17:13:13.372Z,48.88
2024-05-09T17:15:41.404Z,51.58
2024-05-09T17:18:09.812Z,52.75
2024-05-09T17:20:38.011Z,52.88
2024-05-09T17:23:15.206Z,55.04
2024-05-09T17:25:43.381Z,57.74
2024-05-09T17:28:11.600Z,59.66
2024-05-09T17:30:41.721Z,63.92
2024-05-09T17:33:11.383Z,68.61
2024-05-09T17:35:39.852Z,72.82
2024-05-09T17:38:07.513Z,75.61
2024-05-09T17:40:37.363Z,75.58
2024-05-09T17:43:08.383Z,75.96
2024-05-09T17:45:39.349Z,77.41
2024-05-09T17:48:09.830Z,78.84
2024-05-09T17:50:38.635Z,81.06
2024-05-09T17:53:07.121Z,83.92
2024-05-09T17:55:35.326Z,86.80
2024-05-09T17:58:06.813Z,88.12
2024-05-09T18:00:39.421Z,89.54
2024-05-09T18:03:11.984Z,90.97
2024-05-09T18:05:41.625Z,92.00
2024-05-09T18:08:09.888Z,92.54
2024-05-09T18:10:40.582Z,93.54
2024-05-09T18:13:09.110Z,93.49
2024-05-09T18:15:37.600Z,95.05
2024-05-09T18:18:05.994Z,95.16
2024-05-09T18:20:41.790Z,95.59
2024-05-09T18:23:14.654Z,96.25
2024-05-09T18:25:43.495Z,96.35
2024-05-09T18:28:11.185Z,96.66
2024-05-09T18:30:39.807Z,98.35
2024-05-09T18:33:09.918Z,98.51
2024-05-09T18:35:37.813Z,99.21
2024-05-09T18:38:05.735Z,96.01
2024-05-09T18:40:36.477Z,94.81
2024-05-09T18:43:07.604Z,94.36
2024-05-09T18:45:38.134Z,93.80
2024-05-09T18:48:08.374Z,93.22
2024-05-09T18:50:39.948Z,92.76
2024-05-09T18:53:10.354Z,93.42
2024-05-09T18:55:38.661Z,96.15
2024-05-09T18:58:06.693Z,97.57
2024-05-09T19:00:37.885Z,99.02
2024-05-09T19:03:09.429Z,98.82
2024-05-09T19:05:39.771Z,97.99
2024-05-09T19:08:08.545Z,98.01
2024-05-09T19:10:39.611Z,99.72
2024-05-09T19:13:13.017Z,100.00
2024-05-09T19:15:42.759Z,100.00
2024-05-09T19:18:12.515Z,100.00
2024-05-09T19:20:40.697Z,100.00
2024-05-09T19:23:08.447Z,100.00
2024-05-09T19:25:36.575Z,100.00
2024-05-09T19:28:05.492Z,100.00
2024-05-09T19:30:39.047Z,100.00
2024-05-09T19:33:13.565Z,100.00
2024-05-09T19:35:42.964Z,100.00
2024-05-09T19:38:11.809Z,100.00
2024-05-09T19:40:39.444Z,100.00
2024-05-09T19:43:07.306Z,100.00
2024-05-09T19:45:36.151Z,100.00
2024-05-09T19:48:05.353Z,100.00
2024-05-09T19:50:41.253Z,100.00
2024-05-09T19:53:14.731Z,100.00
2024-05-09T19:55:42.827Z,100.00
2024-05-09T19:58:11.918Z,100.00
2024-05-09T20:00:42.684Z,100.00
2024-05-09T20:03:12.731Z,100.00
2024-05-09T20:05:42.950Z,100.00
2024-05-09T20:08:10.899Z,100.00
2024-05-09T20:10:39.071Z,100.00
2024-05-09T20:13:08.217Z,100.00
2024-05-09T20:15:37.818Z,100.00
2024-05-09T20:18:06.723Z,100.00
2024-05-09T20:20:39.302Z,100.00
2024-05-09T20:23:13.069Z,100.00
2024-05-09T20:25:41.803Z,100.00
2024-05-09T20:28:10.670Z,100.00
2024-05-09T20:30:38.838Z,100.00
2024-05-09T20:33:07.826Z,100.00
2024-05-09T20:35:36.683Z,100.00
2024-05-09T20:38:05.240Z,100.00
2024-05-09T20:40:36.747Z,100.00
2024-05-09T20:43:08.053Z,100.00
2024-05-09T20:45:36.368Z,100.00
2024-05-09T20:48:04.964Z,100.00
2024-05-09T20:50:38.532Z,100.00
2024-05-09T20:53:10.447Z,100.00
2024-05-09T20:55:38.414Z,100.00
2024-05-09T20:58:06.047Z,100.00
2024-05-09T21:00:39.575Z,100.00
2024-05-09T21:03:11.491Z,100.00
2024-05-09T21:05:39.996Z,100.00
2024-05-09T21:08:08.188Z,100.00
2024-05-09T21:10:36.551Z,100.00
2024-05-09T21:13:05.855Z,100.00
2024-05-09T21:15:34.302Z,100.00
2024-05-09T21:18:02.052Z,100.00
2024-05-09T21:20:32.569Z,100.00
2024-05-09T21:23:01.605Z,100.00
2024-05-09T21:25:29.974Z,100.00
2024-05-09T21:27:57.811Z,100.00
2024-05-09T21:30:32.922Z,100.00
2024-05-09T21:33:09.267Z,100.00
2024-05-09T21:35:37.989Z,100.00
2024-05-09T21:38:05.958Z,100.00
2024-05-09T21:40:35.828Z,100.00
2024-05-09T21:43:06.251Z,100.00
2024-05-09T21:45:34.515Z,100.00
2024-05-09T21:48:06.246Z,100.00
2024-05-09T21:50:39.838Z,100.00
2024-05-09T21:53:13.433Z,100.00
2024-05-09T21:55:42.386Z,100.00
2024-05-09T21:58:12.180Z,100.00
2024-05-09T22:00:42.811Z,100.00
2024-05-09T22:03:11.692Z,100.00
2024-05-09T22:05:41.884Z,100.00
2024-05-09T22:08:10.530Z,100.00
2024-05-09T22:10:38.051Z,100.00
2024-05-09T22:13:06.603Z,100.00
2024-05-09T22:15:36.165Z,100.00
2024-05-09T22:18:05.367Z,100.00
2024-05-09T22:20:37.510Z,100.00
2024-05-09T22:23:08.285Z,100.00
2024-05-09T22:25:37.256Z,100.00
2024-05-09T22:28:05.584Z,100.00
2024-05-09T22:30:37.342Z,100.00
2024-05-09T22:33:08.489Z,100.00
2024-05-09T22:35:37.125Z,100.00
2024-05-09T22:38:04.720Z,100.00
2024-05-09T22:40:41.988Z,100.00
2024-05-09T22:43:23.810Z,100.00
2024-05-09T22:45:54.925Z,100.00
2024-05-09T22:48:24.600Z,100.00
2024-05-09T22:50:53.733Z,100.00
2024-05-09T22:53:22.656Z,100.00
2024-05-09T22:55:50.161Z,100.00
2024-05-09T22:58:18.382Z,100.00
2024-05-09T23:00:46.129Z,100.00
2024-05-09T23:03:16.605Z,100.00
2024-05-09T23:05:44.496Z,100.00
2024-05-09T23:08:12.160Z,100.00
2024-05-09T23:10:39.771Z,100.00
2024-05-09T23:13:08.168Z,100.00
2024-05-09T23:15:38.466Z,100.00
2024-05-09T23:18:06.844Z,100.00
2024-05-09T23:20:38.510Z,100.00
2024-05-09T23:23:08.487Z,100.00
2024-05-09T23:25:36.785Z,100.00
2024-05-09T23:28:05.366Z,100.00
2024-05-09T23:30:37.880Z,100.00
2024-05-09T23:33:10.024Z,100.00
2024-05-09T23:35:38.461Z,100.00
2024-05-09T23:38:05.907Z,100.00
2024-05-09T23:40:39.342Z,100.00
2024-05-09T23:43:10.168Z,100.00
2024-05-09T23:45:38.502Z,100.00
2024-05-09T23:48:06.898Z,100.00
2024-05-09T23:50:37.626Z,100.00
2024-05-09T23:53:08.444Z,100.00
2024-05-09T23:55:37.579Z,100.00
2024-05-09T23:58:06.378Z,100.00
